createdAt,value
2018-07-29T00:00:57.636Z,25.31
2018-07-29T00:01:57.672Z,25.31
2018-07-29T00:02:57.712Z,25.31
2018-07-29T00:03:57.730Z,25.15
2018-07-29T00:04:57.757Z,25.26
2018-07-29T00:05:57.794Z,25.19
2018-07-29T00:06:57.821Z,25.19
2018-07-29T00:07:57.845Z,25.09
2018-07-29T00:08:57.904Z,25.21
2018-07-29T00:09:57.907Z,25.09
2018-07-29T00:10:57.935Z,25.03
2018-07-29T00:11:57.974Z,25.12
2018-07-29T00:12:58.023Z,25.06
2018-07-29T00:13:58.032Z,25.12
2018-07-29T00:14:58.073Z,25.12
2018-07-29T00:15:58.102Z,25.09
2018-07-29T00:16:58.121Z,25.11
2018-07-29T00:17:58.157Z,25.14
2018-07-29T00:18:58.181Z,24.94
2018-07-29T00:19:58.217Z,25.03
2018-07-29T00:20:58.248Z,25.12
2018-07-29T00:21:58.277Z,25.07
2018-07-29T00:22:58.316Z,25.12
2018-07-29T00:23:58.339Z,25.00
2018-07-29T00:24:58.361Z,25.12
2018-07-29T00:25:58.389Z,25.15
2018-07-29T00:26:58.425Z,25.07
2018-07-29T00:27:58.453Z,24.89
2018-07-29T00:28:58.486Z,25.04
2018-07-29T00:29:58.520Z,25.18
2018-07-29T00:30:58.546Z,25.04
2018-07-29T00:31:58.571Z,25.11
2018-07-29T00:32:58.611Z,25.03
2018-07-29T00:33:58.641Z,25.00
2018-07-29T00:34:58.673Z,25.07
2018-07-29T00:35:58.691Z,25.07
2018-07-29T00:36:58.723Z,25.06
2018-07-29T00:37:58.767Z,25.11
2018-07-29T00:38:58.796Z,25.09
2018-07-29T00:39:58.814Z,25.03
2018-07-29T00:40:58.846Z,24.93
2018-07-29T00:41:58.877Z,24.94
2018-07-29T00:42:58.904Z,24.88
2018-07-29T00:43:58.943Z,24.99
2018-07-29T00:44:58.965Z,25.03
2018-07-29T00:45:58.992Z,25.01
2018-07-29T00:46:59.030Z,25.09
2018-07-29T00:47:59.056Z,25.07
2018-07-29T00:48:59.100Z,24.96
2018-07-29T00:49:59.120Z,24.93
2018-07-29T00:50:59.150Z,24.97
2018-07-29T00:51:59.187Z,24.92
2018-07-29T00:52:59.260Z,24.99
2018-07-29T00:53:59.237Z,24.93
2018-07-29T00:54:59.273Z,24.96
2018-07-29T00:55:59.301Z,25.01
2018-07-29T00:56:59.336Z,25.12
2018-07-29T00:57:59.368Z,25.01
2018-07-29T00:58:59.396Z,25.07
2018-07-29T00:59:59.426Z,25.09
2018-07-29T01:00:59.457Z,25.11
2018-07-29T01:01:59.509Z,25.15
2018-07-29T01:02:59.515Z,24.93
2018-07-29T01:03:59.551Z,24.88
2018-07-29T01:04:59.570Z,24.84
2018-07-29T01:05:59.603Z,24.77
2018-07-29T01:06:59.629Z,24.86
2018-07-29T01:07:59.675Z,24.99
2018-07-29T01:08:59.708Z,24.99
2018-07-29T01:09:59.721Z,25.15
2018-07-29T01:10:59.755Z,25.11
2018-07-29T01:11:59.779Z,25.06
2018-07-29T01:12:59.820Z,24.99
2018-07-29T01:13:59.845Z,25.11
2018-07-29T01:14:59.902Z,24.99
2018-07-29T01:15:59.915Z,24.96
2018-07-29T01:16:59.934Z,24.88
2018-07-29T01:18:00.015Z,24.93
2018-07-29T01:18:59.992Z,25.04
2018-07-29T01:20:00.131Z,25.07
2018-07-29T01:21:00.053Z,25.09
2018-07-29T01:22:00.085Z,25.16
2018-07-29T01:23:00.131Z,25.24
2018-07-29T01:24:00.143Z,25.14
2018-07-29T01:25:00.182Z,25.01
2018-07-29T01:26:00.210Z,24.94
2018-07-29T01:27:00.312Z,25.01
2018-07-29T01:28:00.268Z,25.16
2018-07-29T01:29:00.307Z,25.21
2018-07-29T01:30:00.324Z,25.16
2018-07-29T01:31:00.353Z,25.26
2018-07-29T01:32:00.400Z,25.25
2018-07-29T01:33:00.422Z,25.22
2018-07-29T01:34:00.445Z,25.12
2018-07-29T01:35:00.480Z,25.25
2018-07-29T01:36:00.515Z,25.18
2018-07-29T01:37:00.555Z,25.21
2018-07-29T01:38:00.570Z,25.19
2018-07-29T01:39:00.603Z,25.21
2018-07-29T01:40:00.630Z,25.18
2018-07-29T01:41:00.662Z,25.19
2018-07-29T01:42:00.693Z,25.22
2018-07-29T01:43:00.717Z,25.09
2018-07-29T01:44:00.749Z,25.09
2018-07-29T01:45:00.778Z,25.00
2018-07-29T01:46:00.809Z,25.07
2018-07-29T01:47:00.838Z,25.11
2018-07-29T01:48:00.869Z,25.12
2018-07-29T01:49:00.905Z,25.21
2018-07-29T01:50:00.931Z,25.15
2018-07-29T01:51:00.960Z,25.18
2018-07-29T01:52:01.002Z,25.18
2018-07-29T01:53:01.021Z,25.06
2018-07-29T01:54:01.050Z,25.06
2018-07-29T01:55:01.076Z,24.86
2018-07-29T01:56:01.112Z,25.00
2018-07-29T01:57:01.142Z,24.77
2018-07-29T01:58:01.171Z,24.85
2018-07-29T01:59:01.204Z,24.84
2018-07-29T02:00:01.231Z,24.85
2018-07-29T02:01:01.263Z,24.81
2018-07-29T02:02:01.291Z,24.74
2018-07-29T02:03:01.332Z,24.69
2018-07-29T02:04:01.353Z,24.65
2018-07-29T02:05:01.404Z,24.63
2018-07-29T02:06:01.423Z,24.66
2018-07-29T02:07:01.446Z,24.58
2018-07-29T02:08:01.471Z,24.25
2018-07-29T02:09:01.503Z,24.26
2018-07-29T02:10:01.536Z,24.36
2018-07-29T02:11:01.561Z,24.31
2018-07-29T02:12:01.591Z,24.44
2018-07-29T02:13:01.621Z,24.37
2018-07-29T02:14:01.653Z,24.29
2018-07-29T02:15:01.680Z,24.09
2018-07-29T02:16:01.778Z,23.91
2018-07-29T02:17:01.740Z,23.74
2018-07-29T02:18:01.773Z,23.79
2018-07-29T02:19:01.805Z,23.67
2018-07-29T02:20:01.833Z,23.58
2018-07-29T02:21:01.874Z,23.56
2018-07-29T02:22:01.908Z,23.55
2018-07-29T02:23:01.924Z,23.48
2018-07-29T02:24:01.955Z,23.44
2018-07-29T02:25:01.985Z,23.37
2018-07-29T02:26:02.017Z,23.49
2018-07-29T02:27:02.047Z,23.79
2018-07-29T02:28:02.078Z,23.86
2018-07-29T02:29:02.108Z,23.79
2018-07-29T02:30:02.142Z,23.86
2018-07-29T02:31:02.181Z,23.84
2018-07-29T02:32:02.197Z,23.92
2018-07-29T02:33:02.235Z,23.85
2018-07-29T02:34:02.252Z,23.71
2018-07-29T02:35:02.281Z,23.69
2018-07-29T02:36:02.373Z,23.71
2018-07-29T02:37:02.342Z,23.79
2018-07-29T02:38:02.372Z,23.63
2018-07-29T02:39:02.417Z,23.55
2018-07-29T02:40:02.440Z,23.48
2018-07-29T02:41:02.464Z,23.56
2018-07-29T02:42:02.495Z,23.66
2018-07-29T02:43:02.525Z,23.79
2018-07-29T02:44:02.586Z,23.91
2018-07-29T02:45:02.693Z,23.94
2018-07-29T02:46:02.635Z,24.06
2018-07-29T02:47:02.686Z,24.00
2018-07-29T02:48:02.678Z,23.94
2018-07-29T02:49:02.714Z,23.84
2018-07-29T02:50:02.738Z,23.84
2018-07-29T02:51:02.765Z,24.00
2018-07-29T02:52:02.799Z,23.96
2018-07-29T02:53:02.850Z,24.06
2018-07-29T02:54:02.857Z,24.06
2018-07-29T02:55:02.902Z,24.11
2018-07-29T02:56:02.913Z,24.03
2018-07-29T02:57:02.968Z,24.09
2018-07-29T02:58:03.007Z,24.01
2018-07-29T02:59:03.025Z,24.09
2018-07-29T03:00:03.039Z,24.06
2018-07-29T03:01:03.063Z,24.01
2018-07-29T03:02:03.092Z,24.01
2018-07-29T03:03:03.128Z,23.92
2018-07-29T03:04:03.157Z,24.06
2018-07-29T03:05:03.198Z,24.09
2018-07-29T03:06:03.216Z,24.14
2018-07-29T03:07:03.257Z,24.04
2018-07-29T03:08:03.274Z,23.76
2018-07-29T03:09:03.303Z,23.71
2018-07-29T03:10:03.336Z,23.64
2018-07-29T03:11:03.361Z,23.59
2018-07-29T03:12:03.394Z,23.66
2018-07-29T03:13:03.421Z,23.54
2018-07-29T03:14:03.452Z,23.40
2018-07-29T03:15:03.491Z,23.28
2018-07-29T03:16:03.534Z,23.25
2018-07-29T03:17:03.541Z,23.34
2018-07-29T03:18:03.638Z,23.33
2018-07-29T03:19:03.607Z,23.45
2018-07-29T03:20:03.630Z,23.71
2018-07-29T03:21:03.663Z,23.74
2018-07-29T03:22:03.689Z,23.74
2018-07-29T03:23:03.721Z,23.79
2018-07-29T03:24:03.756Z,23.86
2018-07-29T03:25:03.924Z,23.85
2018-07-29T03:26:03.815Z,23.86
2018-07-29T03:27:03.847Z,23.82
2018-07-29T03:28:03.869Z,23.86
2018-07-29T03:29:03.902Z,23.85
2018-07-29T03:30:03.932Z,23.89
2018-07-29T03:31:03.959Z,23.84
2018-07-29T03:32:03.991Z,23.89
2018-07-29T03:33:04.023Z,23.85
2018-07-29T03:34:04.058Z,23.85
2018-07-29T03:35:04.083Z,23.91
2018-07-29T03:36:04.116Z,23.79
2018-07-29T03:37:04.147Z,23.81
2018-07-29T03:38:04.174Z,23.89
2018-07-29T03:39:04.199Z,23.86
2018-07-29T03:40:04.226Z,23.79
2018-07-29T03:41:04.257Z,23.84
2018-07-29T03:42:04.292Z,23.70
2018-07-29T03:43:04.316Z,23.73
2018-07-29T03:44:04.347Z,23.59
2018-07-29T03:45:04.905Z,23.54
2018-07-29T03:46:04.415Z,23.55
2018-07-29T03:47:04.508Z,23.51
2018-07-29T03:48:04.470Z,23.44
2018-07-29T03:49:04.498Z,23.45
2018-07-29T03:50:04.527Z,23.37
2018-07-29T03:51:04.591Z,23.47
2018-07-29T03:52:04.587Z,23.54
2018-07-29T03:53:04.614Z,23.51
2018-07-29T03:54:04.652Z,23.45
2018-07-29T03:55:04.675Z,23.44
2018-07-29T03:56:04.730Z,23.56
2018-07-29T03:57:04.738Z,23.58
2018-07-29T03:58:04.785Z,23.52
2018-07-29T03:59:04.795Z,23.51
2018-07-29T04:00:04.824Z,23.47
2018-07-29T04:01:04.857Z,23.48
2018-07-29T04:02:04.880Z,23.36
2018-07-29T04:03:04.913Z,23.42
2018-07-29T04:04:04.936Z,23.45
2018-07-29T04:05:04.973Z,23.34
2018-07-29T04:06:05.004Z,23.34
2018-07-29T04:07:05.043Z,23.40
2018-07-29T04:08:05.062Z,23.28
2018-07-29T04:09:05.088Z,23.32
2018-07-29T04:10:05.121Z,23.14
2018-07-29T04:11:05.153Z,23.20
2018-07-29T04:12:05.249Z,23.01
2018-07-29T04:13:05.206Z,22.98
2018-07-29T04:14:05.238Z,23.04
2018-07-29T04:15:05.274Z,23.14
2018-07-29T04:16:05.298Z,23.07
2018-07-29T04:17:05.331Z,23.14
2018-07-29T04:18:05.361Z,23.10
2018-07-29T04:19:05.384Z,23.14
2018-07-29T04:20:05.415Z,23.16
2018-07-29T04:21:05.443Z,23.14
2018-07-29T04:22:05.478Z,23.21
2018-07-29T04:23:05.508Z,23.25
2018-07-29T04:24:05.538Z,23.26
2018-07-29T04:25:05.569Z,23.13
2018-07-29T04:26:05.595Z,23.17
2018-07-29T04:27:05.633Z,23.02
2018-07-29T04:28:05.657Z,23.07
2018-07-29T04:29:05.685Z,23.16
2018-07-29T04:30:05.712Z,23.10
2018-07-29T04:31:05.744Z,23.13
2018-07-29T04:32:05.777Z,22.99
2018-07-29T04:33:05.800Z,23.11
2018-07-29T04:34:05.831Z,23.11
2018-07-29T04:35:05.865Z,23.18
2018-07-29T04:36:05.984Z,23.07
2018-07-29T04:37:05.923Z,23.06
2018-07-29T04:38:05.957Z,23.18
2018-07-29T04:39:05.978Z,23.17
2018-07-29T04:40:06.021Z,23.14
2018-07-29T04:41:06.037Z,23.11
2018-07-29T04:42:06.067Z,23.21
2018-07-29T04:43:06.093Z,23.25
2018-07-29T04:44:06.124Z,23.11
2018-07-29T04:45:06.923Z,23.08
2018-07-29T04:46:06.186Z,22.99
2018-07-29T04:47:06.923Z,22.95
2018-07-29T04:48:06.248Z,22.98
2018-07-29T04:49:06.274Z,22.96
2018-07-29T04:50:06.306Z,22.84
2018-07-29T04:51:06.335Z,22.89
2018-07-29T04:52:06.366Z,22.89
2018-07-29T04:53:06.393Z,23.07
2018-07-29T04:54:06.415Z,22.96
2018-07-29T04:55:06.455Z,22.96
2018-07-29T04:56:06.495Z,22.95
2018-07-29T04:57:06.510Z,22.98
2018-07-29T04:58:06.572Z,23.18
2018-07-29T04:59:06.566Z,23.23
2018-07-29T05:00:06.593Z,23.08
2018-07-29T05:01:06.627Z,23.17
2018-07-29T05:02:06.660Z,23.20
2018-07-29T05:03:06.685Z,23.37
2018-07-29T05:04:06.718Z,23.48
2018-07-29T05:05:06.746Z,23.42
2018-07-29T05:06:06.779Z,23.42
2018-07-29T05:07:06.806Z,23.28
2018-07-29T05:08:06.838Z,23.26
2018-07-29T05:09:06.866Z,23.25
2018-07-29T05:10:06.896Z,23.28
2018-07-29T05:11:06.920Z,23.28
2018-07-29T05:12:06.960Z,23.34
2018-07-29T05:13:06.998Z,23.55
2018-07-29T05:14:07.011Z,23.62
2018-07-29T05:15:07.046Z,23.40
2018-07-29T05:16:07.084Z,23.32
2018-07-29T05:17:07.098Z,23.33
2018-07-29T05:18:07.133Z,23.39
2018-07-29T05:19:07.165Z,23.39
2018-07-29T05:20:07.192Z,23.25
2018-07-29T05:21:07.224Z,23.28
2018-07-29T05:22:07.249Z,23.21
2018-07-29T05:23:07.290Z,23.25
2018-07-29T05:24:07.320Z,23.23
2018-07-29T05:25:07.388Z,23.21
2018-07-29T05:26:07.507Z,23.21
2018-07-29T05:27:07.400Z,23.37
2018-07-29T05:28:07.429Z,23.51
2018-07-29T05:29:07.457Z,23.69
2018-07-29T05:30:07.490Z,23.67
2018-07-29T05:31:07.515Z,23.71
2018-07-29T05:32:07.548Z,23.85
2018-07-29T05:33:07.580Z,23.73
2018-07-29T05:34:07.608Z,23.70
2018-07-29T05:35:07.656Z,23.70
2018-07-29T05:36:07.670Z,23.69
2018-07-29T05:37:07.718Z,23.86
2018-07-29T05:38:07.727Z,23.69
2018-07-29T05:39:07.775Z,23.58
2018-07-29T05:40:07.787Z,23.55
2018-07-29T05:41:07.819Z,23.64
2018-07-29T05:42:07.849Z,23.47
2018-07-29T05:43:07.878Z,23.58
2018-07-29T05:44:07.914Z,23.73
2018-07-29T05:45:07.972Z,23.66
2018-07-29T05:46:07.981Z,23.59
2018-07-29T05:47:08.097Z,23.58
2018-07-29T05:48:08.034Z,23.59
2018-07-29T05:49:08.087Z,23.58
2018-07-29T05:50:08.085Z,23.52
2018-07-29T05:51:08.122Z,23.34
2018-07-29T05:52:08.142Z,23.32
2018-07-29T05:53:08.180Z,23.29
2018-07-29T05:54:08.212Z,23.29
2018-07-29T05:55:08.235Z,23.21
2018-07-29T05:56:08.498Z,23.14
2018-07-29T05:57:08.295Z,23.18
2018-07-29T05:58:08.329Z,23.14
2018-07-29T05:59:08.359Z,23.28
2018-07-29T06:00:08.383Z,23.26
2018-07-29T06:01:08.407Z,23.32
2018-07-29T06:02:08.441Z,23.13
2018-07-29T06:03:08.485Z,23.18
2018-07-29T06:04:08.513Z,23.23
2018-07-29T06:05:08.530Z,23.14
2018-07-29T06:06:08.569Z,23.21
2018-07-29T06:07:08.593Z,23.32
2018-07-29T06:08:08.627Z,23.26
2018-07-29T06:09:08.650Z,23.25
2018-07-29T06:10:08.679Z,23.21
2018-07-29T06:11:08.721Z,23.23
2018-07-29T06:12:08.785Z,23.20
2018-07-29T06:13:08.788Z,23.13
2018-07-29T06:14:08.808Z,23.17
2018-07-29T06:15:08.857Z,23.16
2018-07-29T06:16:08.859Z,23.16
2018-07-29T06:17:08.902Z,23.17
2018-07-29T06:18:08.917Z,23.29
2018-07-29T06:19:08.946Z,23.28
2018-07-29T06:20:08.990Z,23.26
2018-07-29T06:21:09.016Z,23.29
2018-07-29T06:22:09.041Z,23.36
2018-07-29T06:23:09.068Z,23.37
2018-07-29T06:24:09.098Z,23.39
2018-07-29T06:25:09.127Z,23.32
2018-07-29T06:26:09.158Z,23.34
2018-07-29T06:27:09.195Z,23.25
2018-07-29T06:28:09.215Z,23.16
2018-07-29T06:29:09.250Z,23.16
2018-07-29T06:30:09.283Z,23.23
2018-07-29T06:31:09.307Z,23.13
2018-07-29T06:32:09.336Z,23.21
2018-07-29T06:33:09.368Z,23.11
2018-07-29T06:34:09.396Z,23.28
2018-07-29T06:35:09.425Z,23.17
2018-07-29T06:36:09.465Z,23.11
2018-07-29T06:37:09.484Z,23.20
2018-07-29T06:38:09.520Z,23.23
2018-07-29T06:39:09.548Z,23.34
2018-07-29T06:40:09.580Z,23.58
2018-07-29T06:41:09.609Z,23.51
2018-07-29T06:42:09.635Z,23.40
2018-07-29T06:43:09.672Z,23.33
2018-07-29T06:44:09.694Z,23.42
2018-07-29T06:45:09.788Z,23.71
2018-07-29T06:46:09.768Z,23.71
2018-07-29T06:47:09.786Z,23.85
2018-07-29T06:48:09.811Z,23.77
2018-07-29T06:49:09.850Z,23.73
2018-07-29T06:50:09.882Z,23.70
2018-07-29T06:51:09.903Z,23.56
2018-07-29T06:52:09.935Z,23.55
2018-07-29T06:53:09.971Z,23.70
2018-07-29T06:54:10.041Z,23.71
2018-07-29T06:55:10.033Z,23.70
2018-07-29T06:56:10.070Z,23.77
2018-07-29T06:57:10.091Z,23.73
2018-07-29T06:58:10.146Z,24.03
2018-07-29T06:59:10.143Z,24.14
2018-07-29T07:00:10.183Z,24.34
2018-07-29T07:01:10.205Z,24.34
2018-07-29T07:02:10.283Z,24.55
2018-07-29T07:03:10.285Z,24.43
2018-07-29T07:04:10.305Z,24.47
2018-07-29T07:05:10.338Z,24.28
2018-07-29T07:06:10.370Z,24.32
2018-07-29T07:07:10.971Z,24.36
2018-07-29T07:08:10.437Z,24.43
2018-07-29T07:09:10.451Z,24.44
2018-07-29T07:10:10.474Z,24.48
2018-07-29T07:11:10.530Z,24.51
2018-07-29T07:12:10.684Z,24.55
2018-07-29T07:13:10.690Z,24.41
2018-07-29T07:14:11.488Z,24.34
2018-07-29T07:15:10.690Z,24.28
2018-07-29T07:16:10.747Z,24.07
2018-07-29T07:18:10.820Z,23.76
2018-07-29T07:19:10.741Z,23.70
2018-07-29T07:20:10.777Z,23.82
2018-07-29T07:21:10.804Z,23.89
2018-07-29T07:22:10.843Z,23.94
2018-07-29T07:23:10.875Z,23.94
2018-07-29T07:24:10.902Z,24.06
2018-07-29T07:25:10.923Z,24.19
2018-07-29T07:26:11.017Z,24.19
2018-07-29T07:27:11.011Z,24.10
2018-07-29T07:28:11.013Z,24.04
2018-07-29T07:29:11.042Z,24.00
2018-07-29T07:30:11.076Z,24.19
2018-07-29T07:31:11.135Z,24.25
2018-07-29T07:32:11.139Z,24.36
2018-07-29T07:33:11.167Z,24.38
2018-07-29T07:34:11.190Z,24.36
2018-07-29T07:35:11.222Z,24.31
2018-07-29T07:36:11.265Z,24.22
2018-07-29T07:37:11.321Z,24.34
2018-07-29T07:38:11.329Z,24.41
2018-07-29T07:39:11.339Z,24.55
2018-07-29T07:40:11.372Z,24.65
2018-07-29T07:41:11.404Z,24.61
2018-07-29T07:42:11.443Z,24.41
2018-07-29T07:43:11.473Z,24.34
2018-07-29T07:44:11.492Z,24.22
2018-07-29T07:45:11.534Z,24.22
2018-07-29T07:46:11.551Z,24.18
2018-07-29T07:47:11.594Z,24.16
2018-07-29T07:48:11.628Z,24.00
2018-07-29T07:49:11.643Z,24.07
2018-07-29T07:50:11.671Z,24.18
2018-07-29T07:51:11.698Z,24.07
2018-07-29T07:52:11.727Z,24.22
2018-07-29T07:53:11.772Z,24.29
2018-07-29T07:54:11.824Z,24.21
2018-07-29T07:55:11.816Z,24.29
2018-07-29T07:56:11.901Z,24.40
2018-07-29T07:57:11.891Z,24.22
2018-07-29T07:58:11.907Z,24.21
2018-07-29T07:59:11.934Z,24.43
2018-07-29T08:00:11.964Z,24.47
2018-07-29T08:01:12.110Z,24.38
2018-07-29T08:02:12.060Z,24.41
2018-07-29T08:03:12.058Z,24.51
2018-07-29T08:04:12.088Z,24.68
2018-07-29T08:05:12.231Z,24.75
2018-07-29T08:06:12.156Z,24.85
2018-07-29T08:07:12.189Z,24.99
2018-07-29T08:08:12.210Z,25.12
2018-07-29T08:09:12.260Z,25.12
2018-07-29T08:10:12.268Z,25.11
2018-07-29T08:11:12.300Z,25.18
2018-07-29T08:12:12.324Z,25.12
2018-07-29T08:13:12.356Z,25.19
2018-07-29T08:14:12.401Z,25.31
2018-07-29T08:15:12.415Z,25.29
2018-07-29T08:16:12.460Z,25.44
2018-07-29T08:17:12.483Z,25.56
2018-07-29T08:18:12.515Z,25.63
2018-07-29T08:19:12.531Z,25.70
2018-07-29T08:20:12.564Z,25.73
2018-07-29T08:21:12.596Z,25.81
2018-07-29T08:22:12.649Z,25.83
2018-07-29T08:23:12.653Z,25.89
2018-07-29T08:24:12.688Z,25.85
2018-07-29T08:25:12.736Z,25.89
2018-07-29T08:26:12.746Z,25.88
2018-07-29T08:27:12.785Z,25.74
2018-07-29T08:28:12.811Z,25.86
2018-07-29T08:29:12.835Z,25.95
2018-07-29T08:30:12.867Z,26.07
2018-07-29T08:31:12.895Z,26.18
2018-07-29T08:32:12.925Z,26.30
2018-07-29T08:33:12.962Z,26.34
2018-07-29T08:34:12.990Z,26.39
2018-07-29T08:35:13.016Z,26.44
2018-07-29T08:36:13.047Z,26.44
2018-07-29T08:37:13.080Z,26.49
2018-07-29T08:38:13.106Z,26.45
2018-07-29T08:39:13.141Z,26.52
2018-07-29T08:40:13.168Z,26.61
2018-07-29T08:41:13.202Z,26.63
2018-07-29T08:42:13.237Z,26.85
2018-07-29T08:43:13.272Z,26.83
2018-07-29T08:44:13.333Z,26.78
2018-07-29T08:45:13.476Z,26.74
2018-07-29T08:46:13.354Z,26.56
2018-07-29T08:47:13.377Z,26.64
2018-07-29T08:48:13.420Z,26.61
2018-07-29T08:49:13.442Z,26.86
2018-07-29T08:50:13.474Z,26.89
2018-07-29T08:51:13.525Z,26.79
2018-07-29T08:52:13.541Z,26.86
2018-07-29T08:53:13.563Z,26.73
2018-07-29T08:54:13.592Z,26.68
2018-07-29T08:55:13.629Z,26.59
2018-07-29T08:56:13.651Z,26.63
2018-07-29T08:57:13.699Z,26.68
2018-07-29T08:58:13.735Z,26.79
2018-07-29T08:59:13.746Z,26.86
2018-07-29T09:00:13.776Z,26.85
2018-07-29T09:01:13.818Z,26.78
2018-07-29T09:02:13.840Z,26.71
2018-07-29T09:03:13.871Z,26.67
2018-07-29T09:04:13.896Z,26.70
2018-07-29T09:05:14.048Z,26.83
2018-07-29T09:06:13.969Z,26.82
2018-07-29T09:07:13.999Z,26.93
2018-07-29T09:08:14.040Z,26.97
2018-07-29T09:09:14.077Z,27.13
2018-07-29T09:10:14.087Z,27.30
2018-07-29T09:11:14.112Z,27.20
2018-07-29T09:12:14.146Z,27.23
2018-07-29T09:13:14.175Z,27.25
2018-07-29T09:14:14.236Z,26.92
2018-07-29T09:15:14.235Z,26.76
2018-07-29T09:16:14.283Z,26.82
2018-07-29T09:17:14.294Z,26.85
2018-07-29T09:18:14.329Z,27.03
2018-07-29T09:19:14.364Z,26.97
2018-07-29T09:20:14.392Z,27.13
2018-07-29T09:21:14.416Z,27.26
2018-07-29T09:22:14.450Z,27.38
2018-07-29T09:23:14.482Z,27.55
2018-07-29T09:24:14.513Z,27.60
2018-07-29T09:25:14.611Z,27.68
2018-07-29T09:26:14.573Z,27.78
2018-07-29T09:27:14.607Z,27.88
2018-07-29T09:28:14.633Z,27.86
2018-07-29T09:29:14.662Z,28.06
2018-07-29T09:30:14.751Z,28.13
2018-07-29T09:31:14.734Z,28.22
2018-07-29T09:32:14.754Z,28.31
2018-07-29T09:33:14.809Z,28.16
2018-07-29T09:34:14.821Z,28.30
2018-07-29T09:35:14.847Z,28.15
2018-07-29T09:36:14.881Z,28.12
2018-07-29T09:37:14.906Z,28.09
2018-07-29T09:38:14.941Z,28.03
2018-07-29T09:39:14.977Z,27.81
2018-07-29T09:40:15.014Z,27.81
2018-07-29T09:41:15.029Z,27.52
2018-07-29T09:42:15.073Z,27.47
2018-07-29T09:43:15.096Z,27.64
2018-07-29T09:44:15.125Z,27.66
2018-07-29T09:45:15.185Z,27.48
2018-07-29T09:46:15.195Z,27.08
2018-07-29T09:47:15.216Z,27.07
2018-07-29T09:48:15.259Z,27.37
2018-07-29T09:49:15.282Z,27.48
2018-07-29T09:50:15.309Z,27.61
2018-07-29T09:51:15.345Z,27.86
2018-07-29T09:52:15.372Z,27.82
2018-07-29T09:53:15.420Z,28.13
2018-07-29T09:54:15.433Z,28.37
2018-07-29T09:55:15.467Z,28.52
2018-07-29T09:56:15.500Z,28.67
2018-07-29T09:57:15.521Z,28.87
2018-07-29T09:58:15.562Z,29.10
2018-07-29T09:59:15.586Z,29.07
2018-07-29T10:00:15.618Z,29.05
2018-07-29T10:01:15.659Z,29.21
2018-07-29T10:02:15.687Z,29.40
2018-07-29T10:03:15.717Z,29.40
2018-07-29T10:04:15.738Z,29.53
2018-07-29T10:05:15.772Z,29.50
2018-07-29T10:06:15.803Z,29.42
2018-07-29T10:07:15.834Z,29.49
2018-07-29T10:08:15.866Z,29.65
2018-07-29T10:09:15.955Z,29.86
2018-07-29T10:10:15.927Z,29.90
2018-07-29T10:11:15.960Z,29.95
2018-07-29T10:12:15.997Z,30.54
2018-07-29T10:13:16.034Z,31.26
2018-07-29T10:14:16.170Z,31.64
2018-07-29T10:15:16.088Z,31.87
2018-07-29T10:16:16.127Z,32.04
2018-07-29T10:17:16.157Z,32.73
2018-07-29T10:18:16.181Z,32.85
2018-07-29T10:19:16.209Z,33.09
2018-07-29T10:20:16.237Z,33.58
2018-07-29T10:21:16.290Z,33.72
2018-07-29T10:22:16.300Z,33.97
2018-07-29T10:23:16.448Z,34.14
2018-07-29T10:24:16.363Z,33.48
2018-07-29T10:25:16.531Z,33.73
2018-07-29T10:26:16.436Z,34.22
2018-07-29T10:27:16.459Z,34.37
2018-07-29T10:28:16.491Z,34.10
2018-07-29T10:29:16.538Z,33.61
2018-07-29T10:30:16.567Z,33.36
2018-07-29T10:31:16.584Z,33.23
2018-07-29T10:32:16.618Z,32.39
2018-07-29T10:33:16.649Z,32.37
2018-07-29T10:34:16.763Z,32.85
2018-07-29T10:35:16.720Z,33.20
2018-07-29T10:36:16.757Z,33.48
2018-07-29T10:37:16.778Z,33.63
2018-07-29T10:38:16.808Z,34.00
2018-07-29T10:39:16.855Z,34.14
2018-07-29T10:40:16.869Z,34.19
2018-07-29T10:41:16.904Z,34.10
2018-07-29T10:42:16.934Z,34.35
2018-07-29T10:43:16.982Z,34.50
2018-07-29T10:44:17.010Z,34.73
2018-07-29T10:45:17.073Z,34.41
2018-07-29T10:46:17.063Z,34.50
2018-07-29T10:47:17.136Z,34.40
2018-07-29T10:48:17.134Z,34.55
2018-07-29T10:49:17.193Z,34.47
2018-07-29T10:50:17.191Z,34.83
2018-07-29T10:51:17.228Z,35.44
2018-07-29T10:52:17.287Z,35.47
2018-07-29T10:53:17.295Z,35.64
2018-07-29T10:54:17.321Z,35.81
2018-07-29T10:55:17.355Z,36.75
2018-07-29T10:56:17.403Z,37.14
2018-07-29T10:57:17.429Z,36.97
2018-07-29T10:58:17.452Z,36.44
2018-07-29T10:59:17.486Z,36.17
2018-07-29T11:00:17.566Z,36.69
2018-07-29T11:01:17.554Z,37.29
2018-07-29T11:02:17.593Z,37.22
2018-07-29T11:03:17.628Z,37.25
2018-07-29T11:04:17.660Z,37.06
2018-07-29T11:05:17.701Z,36.96
2018-07-29T11:06:17.718Z,37.25
2018-07-29T11:07:17.751Z,37.50
2018-07-29T11:08:17.785Z,37.85
2018-07-29T11:09:17.820Z,37.56
2018-07-29T11:10:17.914Z,37.44
2018-07-29T11:11:17.957Z,37.45
2018-07-29T11:12:17.968Z,37.56
2018-07-29T11:13:17.956Z,37.85
2018-07-29T11:14:17.989Z,37.91
2018-07-29T11:15:18.020Z,37.95
2018-07-29T11:16:18.067Z,38.34
2018-07-29T11:17:18.089Z,38.00
2018-07-29T11:18:18.141Z,38.27
2018-07-29T11:19:18.160Z,37.79
2018-07-29T11:20:18.221Z,38.48
2018-07-29T11:21:18.240Z,37.50
2018-07-29T11:22:18.269Z,36.60
2018-07-29T11:23:18.308Z,37.54
2018-07-29T11:24:18.354Z,37.66
2018-07-29T11:25:18.404Z,37.79
2018-07-29T11:26:18.409Z,38.02
2018-07-29T11:27:18.454Z,38.47
2018-07-29T11:28:18.543Z,38.77
2018-07-29T11:29:18.529Z,39.08
2018-07-29T11:30:18.589Z,39.20
2018-07-29T11:31:18.595Z,39.23
2018-07-29T11:32:18.631Z,39.91
2018-07-29T11:33:18.674Z,40.00
2018-07-29T11:34:18.724Z,39.89
2018-07-29T11:35:18.749Z,39.11
2018-07-29T11:36:18.781Z,39.08
2018-07-29T11:37:18.822Z,38.35
2018-07-29T11:38:18.891Z,37.11
2018-07-29T11:39:18.900Z,36.16
2018-07-29T11:40:18.926Z,35.61
2018-07-29T11:41:18.967Z,35.08
2018-07-29T11:42:19.001Z,34.51
2018-07-29T11:43:19.057Z,34.02
2018-07-29T11:44:19.075Z,33.70
2018-07-29T11:45:19.105Z,33.35
2018-07-29T11:46:19.143Z,33.08
2018-07-29T11:47:19.172Z,32.75
2018-07-29T11:48:19.218Z,32.48
2018-07-29T11:49:19.239Z,32.37
2018-07-29T11:50:19.276Z,31.92
2018-07-29T11:51:19.311Z,31.62
2018-07-29T11:52:19.343Z,31.45
2018-07-29T11:53:19.402Z,31.42
2018-07-29T11:54:19.417Z,31.36
2018-07-29T11:55:19.442Z,30.85
2018-07-29T11:56:19.487Z,30.52
2018-07-29T11:57:19.544Z,30.78
2018-07-29T11:58:19.549Z,30.81
2018-07-29T11:59:19.576Z,30.81
2018-07-29T12:00:19.610Z,30.78
2018-07-29T12:01:19.642Z,30.58
2018-07-29T12:02:19.673Z,30.21
2018-07-29T12:03:19.705Z,30.18
2018-07-29T12:04:19.750Z,30.31
2018-07-29T12:05:19.775Z,30.43
2018-07-29T12:06:19.805Z,30.51
2018-07-29T12:07:19.857Z,30.55
2018-07-29T12:08:19.871Z,30.48
2018-07-29T12:09:19.904Z,30.36
2018-07-29T12:10:19.939Z,30.31
2018-07-29T12:11:19.994Z,29.98
2018-07-29T12:12:20.008Z,29.62
2018-07-29T12:13:20.037Z,29.35
2018-07-29T12:14:20.068Z,29.27
2018-07-29T12:15:20.116Z,29.57
2018-07-29T12:16:20.129Z,29.62
2018-07-29T12:17:20.174Z,29.42
2018-07-29T12:18:20.220Z,29.53
2018-07-29T12:19:20.230Z,29.73
2018-07-29T12:20:20.271Z,29.81
2018-07-29T12:21:20.300Z,29.74
2018-07-29T12:22:20.333Z,29.86
2018-07-29T12:23:20.365Z,29.77
2018-07-29T12:24:20.396Z,29.61
2018-07-29T12:25:20.423Z,29.47
2018-07-29T12:26:20.464Z,29.27
2018-07-29T12:27:20.497Z,29.24
2018-07-29T12:28:20.518Z,29.10
2018-07-29T12:29:20.549Z,28.97
2018-07-29T12:30:20.588Z,28.80
2018-07-29T12:31:20.620Z,28.70
2018-07-29T12:32:20.648Z,28.50
2018-07-29T12:33:20.693Z,28.40
2018-07-29T12:34:20.709Z,28.40
2018-07-29T12:35:21.671Z,28.55
2018-07-29T12:36:20.786Z,28.60
2018-07-29T12:37:20.808Z,28.60
2018-07-29T12:38:20.839Z,28.55
2018-07-29T12:39:20.879Z,28.56
2018-07-29T12:40:20.903Z,28.67
2018-07-29T12:41:20.941Z,28.78
2018-07-29T12:42:20.984Z,28.75
2018-07-29T12:43:21.051Z,28.70
2018-07-29T12:44:21.032Z,28.72
2018-07-29T12:45:21.062Z,28.80
2018-07-29T12:46:21.101Z,28.74
2018-07-29T12:47:21.134Z,28.78
2018-07-29T12:48:21.160Z,28.70
2018-07-29T12:49:21.195Z,28.62
2018-07-29T12:50:21.226Z,28.67
2018-07-29T12:51:21.260Z,28.53
2018-07-29T12:52:21.287Z,28.65
2018-07-29T12:53:21.329Z,28.64
2018-07-29T12:54:21.353Z,28.59